createdAt,value
2022-12-27T04:26:29.719Z,1.56
2022-12-27T06:00:41.991Z,0.96
2022-12-27T08:36:55.524Z,2.01
2022-12-27T08:50:45.183Z,2.50
2022-12-27T08:53:56.733Z,2.57
2022-12-27T08:56:54.414Z,2.47
2022-12-27T09:39:43.272Z,6.22
2022-12-27T09:43:25.386Z,6.11
2022-12-27T09:46:34.968Z,6.35
2022-12-27T10:45:42.960Z,5.79
2022-12-27T10:49:18.953Z,6.62
2022-12-27T10:51:55.501Z,8.28
2022-12-27T10:55:38.944Z,7.17
2022-12-27T11:50:36.446Z,6.01
2022-12-27T11:54:06.244Z,6.28
2022-12-27T11:57:50.283Z,5.76
2022-12-27T13:06:25.164Z,7.28
2022-12-27T16:21:59.770Z,4.17
2022-12-27T16:25:31.389Z,4.22
2022-12-27T16:28:32.210Z,4.01
2022-12-27T16:31:50.503Z,3.99
2022-12-27T16:34:46.273Z,3.95
2022-12-27T16:37:47.188Z,4.01
2022-12-27T16:40:59.178Z,3.94
2022-12-27T16:44:23.772Z,3.85
2022-12-27T16:47:42.742Z,3.79
2022-12-27T16:52:15.751Z,3.85
2022-12-27T16:55:48.442Z,3.87
2022-12-27T16:59:06.361Z,3.81
2022-12-27T17:02:49.146Z,3.75
2022-12-27T17:11:23.001Z,3.71
2022-12-27T17:14:34.858Z,3.50
2022-12-27T17:17:37.120Z,3.42
2022-12-27T17:20:44.234Z,3.45
2022-12-27T17:23:57.117Z,3.39
2022-12-27T17:37:40.241Z,3.24
2022-12-27T17:40:46.201Z,3.29
2022-12-27T17:44:23.997Z,3.13
2022-12-27T18:31:36.825Z,3.07
2022-12-27T18:35:02.539Z,3.07
2022-12-27T18:38:09.320Z,3.19
2022-12-27T18:53:44.102Z,2.83
2022-12-27T18:56:44.330Z,2.91
2022-12-27T19:17:11.245Z,3.30
